Impacts TAF Board INFO
FOR SITUATIONAL AWARENESS. NOT TO BE USED FOR FLIGHT PLANNING PURPOSES.
IDs:

KPHL - Philadelphia Intl, PA, US

Issued at 1459 UTC 19 Nov 2017
Updated at 1610 UTC 19 Nov 2017
Potential Impact None Slight Moderate High
Time1554Z 19/17Z 19/18Z 19/19Z 19/20Z 19/21Z 19/22Z 19/23Z 20/00Z 20/01Z 20/02Z 20/03Z 20/04Z 20/05Z>>
Type OBS PRVL PRVL PRVL PRVL PRVL PRVL PRVL PRVL PRVL PRVL PRVL PRVL PRVL
VIS 10 >6 >6 >6 >6 >6 >6 >6 >6 >6 >6 >6 >6 >6
CIG 48 -- -- -- -- -- -- -- -- -- -- -- -- --
Cover BKN SCT SCT SCT SCT SKC SKC SKC SKC SKC SKC SKC SKC SKC
FltCat VFR VFR VFR VFR VFR VFR VFR VFR VFR VFR VFR VFR VFR VFR
WX -- -- -- -- -- -- -- -- -- -- -- -- -- --
WDir 280 290 290 290 290 290 290 290 290 290 290 290 290 290
WSpd 24 15 15 15 15 12 12 12 12 12 12 12 12 12
WGst 32 33 33 33 33 25 25 25 25 25 25 25 25 25

Raw TAF
KPHL 191459Z 1915/2018 29025G40KT P6SM BKN040
  FM191700 29015G33KT P6SM SCT040
  FM192100 29012G25KT P6SM SKC
  FM200800 28011KT P6SM SKC


Raw METAR
KPHL 191554Z 28024G32KT 10SM BKN048 12/00 A2958 RMK AO2 PK WND 29039/1527 SLP015 T01170000
KPHL 191454Z 30027G37KT 10SM BKN045 BKN090 11/00 A2955 RMK AO2 PK WND 29037/1449 SLP005 T01060000 51060
KPHL 191354Z 28021G36KT 10SM SCT040 SCT090 SCT160 11/01 A2951 RMK AO2 PK WND 28038/1318 SLP991 T01060011

METAR Board
Radar Display
Forecast Discussion

FOR SITUATIONAL AWARENESS. NOT TO BE USED FOR FLIGHT PLANNING PURPOSES.